.
WxDataArchive / Data Records for 2011-03-31
2011-03-30 March 2011 2011-04-01

Data Records for Thursday, 31 March 2011

Time	Temp	Chill	HIndex	Humid	Dewpt	 Wind 	HiWind	WindDir	Rain 	Barom 
-----	----	-----	------	-----	-----	------	------	-------	-----	----- 
00:00	26.1	26.1	26.1	84	21.9	0	0	---	0.00	29.966 
00:05	26.3	26.3	26.3	85	22.4	0	1	112	0.00	29.966 
00:10	26.3	26.3	26.3	85	22.4	0	1	112	0.00	29.966 
00:15	26.3	26.3	26.3	86	22.7	0	0	---	0.00	29.965 
00:20	26.1	26.1	26.1	86	22.5	0	0	---	0.00	29.965 
00:25	26.1	26.1	26.1	86	22.5	0	0	---	0.00	29.965 
00:30	26.0	26.0	26.0	86	22.4	0	0	---	0.00	29.964 
00:35	25.8	25.8	25.8	86	22.2	0	0	---	0.00	29.964 
00:40	25.7	25.7	25.7	86	22.1	0	0	---	0.00	29.964 
00:45	25.6	25.6	25.6	86	22.0	0	0	---	0.00	29.963 
00:50	25.6	25.6	25.6	86	22.0	0	1	112	0.00	29.963 
00:55	25.6	25.6	25.6	86	22.0	0	0	---	0.00	29.963 
01:00	25.4	25.4	25.4	86	21.8	0	0	---	0.00	29.966 
01:05	25.3	25.3	25.3	86	21.7	0	0	---	0.00	29.966 
01:10	25.0	25.0	25.0	86	21.4	0	0	---	0.00	29.966 
01:15	24.8	24.8	24.8	86	21.2	0	0	---	0.00	29.963 
01:20	24.7	24.7	24.7	87	21.4	0	0	---	0.00	29.963 
01:25	24.5	24.5	24.5	87	21.2	0	0	---	0.00	29.963 
01:30	24.5	24.5	24.5	87	21.2	0	0	---	0.00	29.959 
01:35	24.4	24.4	24.4	87	21.1	0	0	---	0.00	29.959 
01:40	24.2	24.2	24.2	87	20.9	0	0	---	0.00	29.959 
01:45	24.1	24.1	24.1	87	20.8	0	0	---	0.00	29.952 
01:50	24.1	24.1	24.1	88	21.1	0	0	---	0.00	29.952 
01:55	24.1	24.1	24.1	87	20.8	0	0	---	0.00	29.952 
02:00	23.9	23.9	23.9	88	20.9	0	0	---	0.00	29.947 
02:05	23.9	23.9	23.9	88	20.9	0	0	---	0.00	29.947 
02:10	23.8	23.8	23.8	88	20.8	0	0	---	0.00	29.947 
02:15	23.6	23.6	23.6	88	20.6	0	0	---	0.00	29.946 
02:20	23.6	23.6	23.6	88	20.6	0	0	---	0.00	29.946 
02:25	23.6	23.6	23.6	88	20.6	0	0	---	0.00	29.946 
02:30	23.6	23.6	23.6	88	20.6	0	0	---	0.00	29.939 
02:35	23.5	23.5	23.5	88	20.5	0	0	---	0.00	29.939 
02:40	23.5	23.5	23.5	88	20.5	0	0	---	0.00	29.939 
02:45	23.3	23.3	23.3	88	20.3	0	0	---	0.00	29.931 
02:50	23.2	23.2	23.2	88	20.2	0	0	---	0.00	29.931 
02:55	23.2	23.2	23.2	88	20.2	0	0	---	0.00	29.931 
03:00	23.2	23.2	23.2	88	20.2	0	0	---	0.00	29.929 
03:05	23.2	23.2	23.2	88	20.2	0	0	---	0.00	29.929 
03:10	23.3	23.3	23.3	89	20.5	0	0	---	0.00	29.929 
03:15	23.3	23.3	23.3	88	20.3	0	0	---	0.00	29.920 
03:20	23.2	23.2	23.2	88	20.2	0	0	---	0.00	29.920 
03:25	23.0	23.0	23.0	88	20.0	0	0	---	0.00	29.920 
03:30	23.3	23.3	23.3	89	20.5	0	1	112	0.00	29.915 
03:35	23.6	23.6	23.6	90	21.1	0	0	---	0.00	29.915 
03:40	23.9	23.9	23.9	90	21.4	0	0	---	0.00	29.915 
03:45	24.5	24.5	24.5	90	22.0	0	1	112	0.00	29.912 
03:50	25.0	25.0	25.0	91	22.8	0	1	112	0.00	29.912 
03:55	25.3	25.3	25.3	91	23.0	0	0	---	0.00	29.912 
04:00	25.4	25.4	25.4	90	22.9	0	0	---	0.00	29.906 
04:05	25.4	25.4	25.4	90	22.9	0	0	---	0.00	29.906 
04:10	25.6	25.6	25.6	91	23.3	0	1	112	0.00	29.906 
04:15	25.6	25.6	25.6	91	23.3	0	1	112	0.00	29.901 
04:20	25.6	25.6	25.6	90	23.1	0	0	---	0.00	29.901 
04:25	25.4	25.4	25.4	90	22.9	0	0	---	0.00	29.901 
04:30	25.4	25.4	25.4	90	22.9	0	0	---	0.00	29.899 
04:35	25.1	25.1	25.1	90	22.6	0	0	---	0.00	29.899 
04:40	25.0	25.0	25.0	90	22.5	0	0	---	0.00	29.899 
04:45	24.8	24.8	24.8	90	22.3	0	0	---	0.00	29.897 
04:50	24.7	24.7	24.7	90	22.2	0	0	---	0.00	29.897 
04:55	24.5	24.5	24.5	90	22.0	0	0	---	0.00	29.897 
05:00	24.5	24.5	24.5	91	22.3	0	0	---	0.00	29.896 
05:05	24.5	24.5	24.5	90	22.0	0	0	---	0.00	29.896 
05:10	24.5	24.5	24.5	91	22.3	0	0	---	0.00	29.896 
05:15	24.4	24.4	24.4	91	22.2	0	0	---	0.00	29.896 
05:20	24.2	24.2	24.2	91	22.0	0	0	---	0.00	29.896 
05:25	24.1	24.1	24.1	91	21.9	0	0	---	0.00	29.896 
05:30	24.1	24.1	24.1	91	21.9	0	0	---	0.00	29.896 
05:35	23.9	23.9	23.9	91	21.7	0	0	---	0.00	29.896 
05:40	23.8	23.8	23.8	91	21.6	0	0	---	0.00	29.896 
05:45	23.5	23.5	23.5	90	21.0	0	0	---	0.00	29.899 
05:50	23.3	23.3	23.3	90	20.8	0	0	---	0.00	29.899 
05:55	23.2	23.2	23.2	90	20.7	0	0	---	0.00	29.899 
06:00	23.0	23.0	23.0	90	20.5	0	0	---	0.00	29.899 
06:05	22.9	22.9	22.9	90	20.4	0	0	---	0.00	29.899 
06:10	22.7	22.7	22.7	90	20.2	0	0	---	0.00	29.899 
06:15	22.5	22.5	22.5	90	20.0	0	0	---	0.00	29.901 
06:20	22.4	22.4	22.4	90	19.9	0	0	---	0.00	29.901 
06:25	22.2	22.2	22.2	90	19.7	0	0	---	0.00	29.901 
06:30	22.2	22.2	22.2	90	19.7	0	0	---	0.00	29.899 
06:35	22.1	22.1	22.1	90	19.6	0	0	---	0.00	29.899 
06:40	21.9	21.9	21.9	90	19.4	0	0	---	0.00	29.899 
06:45	21.8	21.8	21.8	90	19.3	0	0	---	0.00	29.899 
06:50	21.6	21.6	21.6	90	19.1	0	0	---	0.00	29.899 
06:55	21.4	21.4	21.4	90	18.9	0	0	---	0.00	29.899 
07:00	21.4	21.4	21.4	90	18.9	0	0	---	0.00	29.904 
07:05	21.4	21.4	21.4	90	18.9	0	0	---	0.00	29.904 
07:10	21.4	21.4	21.4	90	18.9	0	0	---	0.00	29.904 
07:15	21.4	21.4	21.4	90	18.9	0	0	---	0.00	29.908 
07:20	21.4	21.4	21.4	91	19.2	0	0	---	0.00	29.908 
07:25	21.4	21.4	21.4	91	19.2	0	0	---	0.00	29.908 
07:30	21.4	21.4	21.4	91	19.2	0	0	---	0.00	29.913 
07:35	21.3	21.3	21.3	91	19.1	0	0	---	0.00	29.913 
07:40	21.4	21.4	21.4	91	19.2	0	0	---	0.00	29.913 
07:45	21.4	21.4	21.4	91	19.2	0	0	---	0.00	29.909 
07:50	21.6	21.6	21.6	91	19.4	0	0	---	0.00	29.909 
07:55	21.8	21.8	21.8	91	19.6	0	0	---	0.00	29.909 
08:00	22.1	22.1	22.1	91	19.9	0	0	---	0.00	29.906 
08:05	22.2	22.2	22.2	91	20.0	0	0	---	0.00	29.906 
08:10	22.5	22.5	22.5	91	20.3	0	0	---	0.00	29.906 
08:15	23.0	23.0	23.0	92	21.0	0	0	---	0.00	29.913 
08:20	23.6	23.6	23.6	92	21.6	0	0	---	0.00	29.913 
08:25	24.1	24.1	24.1	92	22.1	0	0	---	0.00	29.913 
08:30	24.5	24.5	24.5	92	22.5	0	0	---	0.00	29.914 
08:35	25.3	25.3	25.3	92	23.3	0	0	---	0.00	29.914 
08:40	25.8	25.8	25.8	92	23.8	0	0	---	0.00	29.914 
08:45	26.4	26.4	26.4	93	24.7	0	0	---	0.00	29.914 
08:50	27.0	27.0	27.0	93	25.3	0	0	---	0.00	29.914 
08:55	27.6	27.6	27.6	93	25.8	0	0	---	0.00	29.914 
09:00	27.9	27.9	27.9	92	25.9	0	0	---	0.00	29.907 
09:05	28.4	28.4	28.4	92	26.4	0	0	---	0.00	29.907 
09:10	29.0	29.0	29.0	93	27.2	0	0	---	0.00	29.907 
09:15	29.4	29.4	29.4	92	27.4	0	1	202	0.00	29.912 
09:20	30.0	30.0	30.0	92	28.0	0	1	270	0.00	29.912 
09:25	30.4	30.4	30.4	92	28.4	0	1	270	0.00	29.912 
09:30	31.0	31.0	31.0	91	28.7	0	2	270	0.00	29.912 
09:35	31.5	31.5	31.5	90	28.9	0	1	270	0.00	29.912 
09:40	31.9	31.9	31.9	89	29.0	0	1	270	0.00	29.912 
09:45	32.5	32.5	32.5	88	29.3	0	1	270	0.00	29.905 
09:50	33.1	33.1	33.1	86	29.4	0	2	270	0.00	29.905 
09:55	33.5	33.5	33.5	84	29.2	0	2	270	0.00	29.905 
10:00	34.1	34.1	34.1	81	28.9	0	1	270	0.00	29.896 
10:05	34.7	34.7	34.7	79	28.9	0	1	270	0.00	29.896 
10:10	35.3	35.3	35.3	78	29.1	0	1	270	0.00	29.896 
10:15	36.0	36.0	36.0	76	29.2	0	2	270	0.00	29.890 
10:20	36.5	36.5	36.5	73	28.7	0	1	270	0.00	29.890 
10:25	36.8	36.8	36.8	70	27.9	0	1	270	0.00	29.890 
10:30	37.2	37.2	37.2	69	28.0	0	1	338	0.00	29.887 
10:35	37.6	37.6	37.6	67	27.7	0	2	180	0.00	29.887 
10:40	38.0	38.0	38.0	65	27.3	0	1	202	0.00	29.887 
10:45	38.6	38.6	38.6	65	27.9	0	1	202	0.00	29.883 
10:50	39.1	39.1	39.1	63	27.6	0	2	202	0.00	29.883 
10:55	39.5	39.5	39.5	61	27.2	0	2	202	0.00	29.883 
11:00	40.1	40.1	40.1	59	26.9	1	3	202	0.00	29.879 
11:05	40.5	40.5	40.5	57	26.5	0	3	202	0.00	29.879 
11:10	40.9	40.9	40.9	55	26.0	0	1	202	0.00	29.879 
11:15	41.1	41.1	41.1	50	23.9	1	3	0	0.00	29.879 
11:20	41.6	41.6	41.6	48	23.4	0	2	315	0.00	29.879 
11:25	42.1	42.1	42.1	46	22.8	1	3	315	0.00	29.879 
11:30	41.9	41.9	41.9	42	20.5	1	4	270	0.00	29.875 
11:35	41.9	41.9	41.9	44	21.6	0	2	315	0.00	29.875 
11:40	42.1	42.1	42.1	43	21.2	0	1	315	0.00	29.875 
11:45	42.6	42.6	42.6	45	22.8	0	1	315	0.00	29.871 
11:50	43.2	43.2	43.2	42	21.7	1	3	90	0.00	29.871 
11:55	43.9	43.9	43.9	43	22.9	0	1	90	0.00	29.871 
12:00	43.9	43.9	43.9	39	20.6	1	4	90	0.00	29.861 
12:05	43.5	43.5	43.5	36	18.3	1	2	270	0.00	29.861 
12:10	43.6	43.6	43.6	35	17.8	0	2	315	0.00	29.861 
12:15	43.8	43.8	43.8	36	18.6	0	3	315	0.00	29.859 
12:20	44.2	44.2	44.2	38	20.2	0	2	315	0.00	29.859 
12:25	44.6	44.6	44.6	39	21.2	0	3	315	0.00	29.859 
12:30	44.8	44.8	44.8	36	19.5	1	4	315	0.00	29.846 
12:35	45.1	45.1	45.1	34	18.4	1	3	112	0.00	29.846 
12:40	44.9	44.9	44.9	35	18.9	0	2	315	0.00	29.846 
12:45	44.8	44.8	44.8	35	18.8	0	2	315	0.00	29.843 
12:50	44.9	44.9	44.9	35	18.9	1	3	315	0.00	29.843 
12:55	45.2	45.2	45.2	35	19.2	1	3	315	0.00	29.843 
13:00	45.4	45.4	45.4	32	17.3	1	4	45	0.00	29.832 
13:05	45.5	45.5	45.5	33	18.1	0	2	45	0.00	29.832 
13:10	46.0	46.0	46.0	34	19.2	0	3	270	0.00	29.832 
13:15	46.0	46.0	46.0	35	19.9	0	2	270	0.00	29.825 
13:20	46.4	46.4	46.4	34	19.6	1	4	248	0.00	29.825 
13:25	46.8	46.8	46.8	34	19.9	1	3	112	0.00	29.825 
13:30	46.7	46.7	46.7	31	17.7	1	4	270	0.00	29.814 
13:35	46.4	46.4	46.4	32	18.2	1	4	270	0.00	29.814 
13:40	46.2	46.2	46.2	32	18.0	1	7	0	0.00	29.814 
13:45	46.5	46.5	46.5	33	19.0	0	2	112	0.00	29.811 
13:50	47.1	47.1	47.1	32	18.8	0	2	180	0.00	29.811 
13:55	47.4	47.4	47.4	29	16.8	1	3	270	0.00	29.811 
14:00	47.3	47.3	47.3	30	17.5	1	5	248	0.00	29.809 
14:05	47.4	47.4	47.4	30	17.5	1	3	270	0.00	29.809 
14:10	47.1	47.1	47.1	29	16.5	1	5	248	0.00	29.809 
14:15	47.3	47.3	47.3	32	19.0	1	6	292	0.00	29.798 
14:20	47.3	47.3	47.3	30	17.5	1	3	68	0.00	29.798 
14:25	47.0	47.0	47.0	30	17.2	1	4	68	0.00	29.798 
14:30	47.0	47.0	47.0	28	15.6	0	2	45	0.00	29.796 
14:35	47.3	47.3	47.3	31	18.2	0	2	45	0.00	29.796 
14:40	47.3	47.3	47.3	30	17.5	0	1	22	0.00	29.796 
14:45	47.4	47.4	47.4	30	17.5	0	4	22	0.00	29.790 
14:50	47.6	47.6	47.6	29	16.9	0	3	315	0.00	29.790 
14:55	47.4	47.4	47.4	30	17.5	1	3	338	0.00	29.790 
15:00	47.4	47.4	47.4	27	15.1	1	3	248	0.00	29.782 
15:05	47.4	47.4	47.4	27	15.1	0	2	270	0.00	29.782 
15:10	47.3	47.3	47.3	30	17.5	0	2	270	0.00	29.782 
15:15	47.1	47.1	47.1	29	16.5	1	4	90	0.00	29.768 
15:20	47.1	47.1	47.1	30	17.3	1	3	68	0.00	29.768 
15:25	47.1	47.1	47.1	30	17.3	0	2	68	0.00	29.768 
15:30	47.4	47.4	47.4	31	18.3	0	3	68	0.00	29.764 
15:35	47.9	47.9	47.9	30	18.0	0	2	68	0.00	29.764 
15:40	48.2	48.2	48.2	29	17.5	1	2	68	0.00	29.764 
15:45	48.5	48.5	48.5	30	18.5	0	2	68	0.00	29.760 
15:50	48.5	48.5	48.5	29	17.7	0	2	68	0.00	29.760 
15:55	48.5	48.5	48.5	29	17.7	0	2	68	0.00	29.760 
16:00	48.2	48.2	48.2	28	16.6	1	4	68	0.00	29.751 
16:05	48.0	48.0	48.0	28	16.5	0	2	270	0.00	29.751 
16:10	47.9	47.9	47.9	28	16.4	0	3	270	0.00	29.751 
16:15	47.9	47.9	47.9	28	16.4	0	2	338	0.00	29.748 
16:20	48.3	48.3	48.3	31	19.1	0	1	338	0.00	29.748 
16:25	48.5	48.5	48.5	27	16.1	1	3	270	0.00	29.748 
16:30	48.3	48.3	48.3	27	15.9	1	4	270	0.00	29.742 
16:35	48.5	48.5	48.5	29	17.7	1	6	112	0.00	29.742 
16:40	48.6	48.6	48.6	28	17.0	0	2	90	0.00	29.742 
16:45	48.9	48.9	48.9	27	16.4	0	1	90	0.00	29.735 
16:50	48.9	48.9	48.9	27	16.4	0	2	90	0.00	29.735 
16:55	48.8	48.8	48.8	27	16.3	0	2	68	0.00	29.735 
17:00	48.3	48.3	48.3	26	15.0	1	4	90	0.00	29.736 
17:05	48.0	48.0	48.0	28	16.5	0	0	---	0.00	29.736 
17:10	48.0	48.0	48.0	29	17.3	0	1	90	0.00	29.736 
17:15	48.2	48.2	48.2	27	15.8	0	1	90	0.00	29.733 
17:20	48.3	48.3	48.3	28	16.7	1	4	90	0.00	29.733 
17:25	48.3	48.3	48.3	27	15.9	0	3	90	0.00	29.733 
17:30	48.5	48.5	48.5	27	16.1	0	3	90	0.00	29.725 
17:35	48.3	48.3	48.3	28	16.7	1	3	338	0.00	29.725 
17:40	48.3	48.3	48.3	28	16.7	1	3	338	0.00	29.725 
17:45	48.3	48.3	48.3	27	15.9	0	2	270	0.00	29.727 
17:50	48.3	48.3	48.3	27	15.9	0	2	270	0.00	29.727 
17:55	48.3	48.3	48.3	27	15.9	0	1	270	0.00	29.727 
18:00	48.2	48.2	48.2	26	14.9	0	1	270	0.00	29.723 
18:05	48.3	48.3	48.3	28	16.7	0	4	338	0.00	29.723 
18:10	48.2	48.2	48.2	27	15.8	0	1	338	0.00	29.723 
18:15	47.9	47.9	47.9	28	16.4	0	1	338	0.00	29.723 
18:20	47.7	47.7	47.7	28	16.2	0	1	338	0.00	29.723 
18:25	47.6	47.6	47.6	28	16.1	0	2	338	0.00	29.723 
18:30	47.6	47.6	47.6	28	16.1	0	3	112	0.00	29.723 
18:35	47.4	47.4	47.4	28	16.0	0	1	112	0.00	29.723 
18:40	47.1	47.1	47.1	28	15.7	0	2	112	0.00	29.723 
18:45	47.1	47.1	47.1	30	17.3	0	1	112	0.00	29.722 
18:50	47.0	47.0	47.0	29	16.4	0	0	---	0.00	29.722 
18:55	46.8	46.8	46.8	29	16.2	0	1	22	0.00	29.722 
19:00	46.5	46.5	46.5	29	16.0	0	2	45	0.00	29.724 
19:05	46.2	46.2	46.2	29	15.7	0	2	45	0.00	29.724 
19:10	46.1	46.1	46.1	29	15.6	0	0	---	0.00	29.724 
19:15	46.0	46.0	46.0	29	15.5	0	0	---	0.00	29.726 
19:20	45.8	45.8	45.8	30	16.1	0	2	0	0.00	29.726 
19:25	45.7	45.7	45.7	30	16.1	0	1	0	0.00	29.726 
19:30	45.5	45.5	45.5	30	15.9	0	1	0	0.00	29.726 
19:35	45.4	45.4	45.4	30	15.8	0	0	---	0.00	29.726 
19:40	45.2	45.2	45.2	31	16.4	0	0	---	0.00	29.726 
19:45	44.9	44.9	44.9	31	16.1	0	0	---	0.00	29.728 
19:50	44.6	44.6	44.6	31	15.9	0	0	---	0.00	29.728 
19:55	44.5	44.5	44.5	31	15.8	0	0	---	0.00	29.728 
20:00	44.2	44.2	44.2	32	16.2	0	0	---	0.00	29.728 
20:05	44.1	44.1	44.1	33	16.9	0	0	---	0.00	29.728 
20:10	43.8	43.8	43.8	33	16.6	0	0	---	0.00	29.728 
20:15	43.5	43.5	43.5	33	16.3	0	0	---	0.00	29.720 
20:20	43.2	43.2	43.2	34	16.8	0	0	---	0.00	29.720 
20:25	43.1	43.1	43.1	34	16.7	0	0	---	0.00	29.720 
20:30	42.8	42.8	42.8	35	17.1	0	0	---	0.00	29.725 
20:35	42.6	42.6	42.6	35	16.9	0	0	---	0.00	29.725 
20:40	42.5	42.5	42.5	35	16.8	0	0	---	0.00	29.725 
20:45	42.2	42.2	42.2	35	16.5	0	0	---	0.00	29.729 
20:50	42.1	42.1	42.1	36	17.1	0	0	---	0.00	29.729 
20:55	41.9	41.9	41.9	36	16.9	0	0	---	0.00	29.729 
21:00	41.6	41.6	41.6	38	17.9	0	0	---	0.00	29.732 
21:05	41.5	41.5	41.5	39	18.4	0	0	---	0.00	29.732 
21:10	41.2	41.2	41.2	39	18.1	0	0	---	0.00	29.732 
21:15	40.9	40.9	40.9	39	17.9	0	0	---	0.00	29.730 
21:20	40.8	40.8	40.8	40	18.4	0	0	---	0.00	29.730 
21:25	40.6	40.6	40.6	40	18.2	0	0	---	0.00	29.730 
21:30	40.5	40.5	40.5	41	18.7	0	0	---	0.00	29.736 
21:35	40.3	40.3	40.3	41	18.5	0	0	---	0.00	29.736 
21:40	40.3	40.3	40.3	42	19.1	0	0	---	0.00	29.736 
21:45	40.2	40.2	40.2	43	19.5	0	0	---	0.00	29.742 
21:50	40.1	40.1	40.1	43	19.4	0	0	---	0.00	29.742 
21:55	39.9	39.9	39.9	44	19.8	0	0	---	0.00	29.742 
22:00	39.8	39.8	39.8	44	19.7	0	0	---	0.00	29.744 
22:05	39.6	39.6	39.6	45	20.0	0	0	---	0.00	29.744 
22:10	39.3	39.3	39.3	45	19.8	0	0	---	0.00	29.744 
22:15	39.2	39.2	39.2	47	20.7	0	0	---	0.00	29.738 
22:20	39.1	39.1	39.1	48	21.1	0	0	---	0.00	29.738 
22:25	38.9	38.9	38.9	52	22.8	0	1	0	0.00	29.738 
22:30	38.8	38.8	38.8	51	22.2	0	2	0	0.00	29.737 
22:35	38.6	38.6	38.6	51	22.1	0	1	0	0.00	29.737 
22:40	38.8	38.8	38.8	48	20.8	0	2	0	0.00	29.737 
22:45	39.1	39.1	39.1	45	19.6	0	1	0	0.00	29.741 
22:50	39.3	39.3	39.3	43	18.7	0	1	0	0.00	29.741 
22:55	39.5	39.5	39.5	43	18.9	0	2	0	0.00	29.741 
23:00	39.6	39.6	39.6	42	18.4	0	1	0	0.00	29.738 
23:05	39.5	39.5	39.5	42	18.3	0	0	---	0.00	29.738 
23:10	39.2	39.2	39.2	43	18.6	0	1	0	0.00	29.738 
23:15	39.1	39.1	39.1	41	17.4	0	1	0	0.00	29.736 
23:20	39.1	39.1	39.1	41	17.4	0	2	338	0.00	29.736 
23:25	39.2	39.2	39.2	40	16.9	0	2	338	0.00	29.736 
23:30	39.2	39.2	39.2	41	17.5	0	2	338	0.00	29.732 
23:35	38.9	38.9	38.9	41	17.2	0	1	338	0.00	29.732 
23:40	38.8	38.8	38.8	42	17.7	0	1	338	0.00	29.732 
23:45	38.5	38.5	38.5	42	17.4	0	1	338	0.00	29.728 
23:50	38.3	38.3	38.3	42	17.2	0	1	338	0.00	29.728 
23:55	38.2	38.2	38.2	43	17.7	0	1	338	0.00	29.728 

CoCoRaHS
IN-AL-39
A2 Web Hosting
Creative Commons License
GoDaddy
search engine by freefind advanced

loaded 2018-11-17 23:48:05 • last modified 2010-11-18 10:43:29
Privacy PolicyDisclaimer
• wx.awcolley.com is powered by PmWiki v.2002016 •
• all content (unless otherwise noted) © 2018 A W Colley